Search for airport 
image banner adimage banner adimage banner ad
image banner ad

42CL - Costa Mesa Police Department

Located in Costa Mesa, United States

ICAO - 42CL, IATA -

Data provided by Airmate  

General information

Coordinates: N33°39'46" W117°54'14"
Elevation is 60 feet MSL.
Magnetic variation is 14° East
View others Airports in California

Operational data

Special qualification required
Current time UTC:
Current local time:
METAR: KSNA 210853Z AUTO 00000KT 10SM OVC012 18/14 A2992 RMK AO2 SLP131 T01830139 56004
TAF: KSNA 210520Z 2106/2206 VRB05KT P6SM OVC010 FM211200 VRB04KT 5SM HZ OVC008 FM211600 VRB04KT P6SM BKN010 FM211800 22010KT P6SM FEW013 FM220200 23005KT P6SM SCT010
View NOTAMs / SUP AIP / TFR affecting this airport [VIEW]
Communications frequencies: [VIEW]

Runways:

Airport contact information

Address: Costa Mesa United States

Satellite view of 42CL